createdAt,value
2022-09-29T00:01:19.705Z,100604.84
2022-09-29T00:04:25.690Z,100599.19
2022-09-29T00:07:32.254Z,100605.78
2022-09-29T00:10:37.093Z,100608.53
2022-09-29T00:13:41.905Z,100608.03
2022-09-29T00:16:46.642Z,100601.28
2022-09-29T00:19:52.825Z,100609.22
2022-09-29T00:22:57.465Z,100610.31
2022-09-29T00:26:05.361Z,100607.69
2022-09-29T00:29:12.046Z,100609.13
2022-09-29T00:32:16.884Z,100606.09
2022-09-29T00:35:22.967Z,100600.16
2022-09-29T00:38:28.359Z,100601.69
2022-09-29T00:41:35.537Z,100596.28
2022-09-29T00:45:06.898Z,100604.84
2022-09-29T00:48:26.890Z,100600.75
2022-09-29T00:51:34.128Z,100605.56
2022-09-29T00:54:43.074Z,100598.69
2022-09-29T00:57:51.435Z,100601.75
2022-09-29T01:04:41.714Z,100600.84
2022-09-29T01:07:47.854Z,100603.00
2022-09-29T01:10:53.250Z,100602.13
2022-09-29T01:14:03.680Z,100601.97
2022-09-29T01:17:08.635Z,100605.91
2022-09-29T01:20:19.077Z,100597.31
2022-09-29T01:24:10.401Z,100602.59
2022-09-29T01:27:50.197Z,100602.75
2022-09-29T01:31:11.082Z,100610.00
2022-09-29T01:34:22.600Z,100611.91
2022-09-29T01:37:39.532Z,100607.16
2022-09-29T01:40:54.790Z,100602.81
2022-09-29T01:44:05.099Z,100607.66
2022-09-29T01:47:13.510Z,100595.19
2022-09-29T01:50:21.625Z,100598.34
2022-09-29T01:53:30.903Z,100593.19
2022-09-29T01:56:40.618Z,100592.72
2022-09-29T01:59:48.755Z,100584.97
2022-09-29T02:02:58.523Z,100578.22
2022-09-29T02:06:07.312Z,100578.56
2022-09-29T02:09:17.563Z,100580.44
2022-09-29T02:12:27.455Z,100578.81
2022-09-29T02:15:36.361Z,100582.19
2022-09-29T02:18:57.461Z,100581.78
2022-09-29T02:22:03.077Z,100586.91
2022-09-29T02:25:10.615Z,100583.75
2022-09-29T02:28:15.643Z,100578.69
2022-09-29T02:31:20.881Z,100578.41
2022-09-29T02:34:27.589Z,100575.06
2022-09-29T02:37:54.676Z,100577.88
2022-09-29T02:41:07.055Z,100579.75
2022-09-29T02:44:27.711Z,100579.22
2022-09-29T02:47:49.249Z,100569.16
2022-09-29T02:51:18.855Z,100570.97
2022-09-29T02:54:42.642Z,100581.94
2022-09-29T02:57:52.899Z,100577.81
2022-09-29T03:00:57.677Z,100578.69
2022-09-29T03:04:04.743Z,100577.16
2022-09-29T03:07:12.003Z,100571.97
2022-09-29T03:10:18.824Z,100582.03
2022-09-29T03:13:23.342Z,100581.09
2022-09-29T03:16:28.069Z,100577.88
2022-09-29T03:19:33.016Z,100570.44
2022-09-29T03:22:39.105Z,100575.53
2022-09-29T03:25:43.638Z,100569.63
2022-09-29T03:28:48.544Z,100565.19
2022-09-29T03:31:53.483Z,100580.47
2022-09-29T03:34:58.069Z,100573.69
2022-09-29T03:38:04.242Z,100578.53
2022-09-29T03:41:09.251Z,100581.84
2022-09-29T03:44:15.122Z,100583.47
2022-09-29T03:47:19.737Z,100580.13
2022-09-29T03:50:24.284Z,100585.47
2022-09-29T03:53:30.420Z,100583.13
2022-09-29T03:56:35.589Z,100580.75
2022-09-29T03:59:45.288Z,100580.03
2022-09-29T04:02:50.495Z,100581.09
2022-09-29T04:05:55.105Z,100578.09
2022-09-29T04:09:01.445Z,100574.56
2022-09-29T04:12:06.165Z,100572.81
2022-09-29T04:15:12.200Z,100576.25
2022-09-29T04:18:17.082Z,100573.56
2022-09-29T04:21:21.849Z,100575.22
2022-09-29T04:24:27.915Z,100576.13
2022-09-29T04:27:32.688Z,100581.31
2022-09-29T04:30:37.805Z,100587.03
2022-09-29T04:33:42.920Z,100581.97
2022-09-29T04:36:47.832Z,100581.63
2022-09-29T04:39:54.526Z,100584.56
2022-09-29T04:42:59.186Z,100580.34
2022-09-29T04:46:06.604Z,100578.22
2022-09-29T04:49:14.137Z,100573.25
2022-09-29T04:52:18.900Z,100572.38
2022-09-29T04:55:24.854Z,100578.28
2022-09-29T04:58:29.973Z,100570.63
2022-09-29T05:01:35.159Z,100576.19
2022-09-29T05:04:39.839Z,100570.56
2022-09-29T05:07:45.857Z,100577.47
2022-09-29T05:10:52.427Z,100577.16
2022-09-29T05:13:57.259Z,100581.56
2022-09-29T05:17:01.931Z,100576.25
2022-09-29T05:20:07.696Z,100577.41
2022-09-29T05:23:14.118Z,100572.66
2022-09-29T05:26:20.628Z,100568.09
2022-09-29T05:29:25.387Z,100562.94
2022-09-29T05:32:30.865Z,100580.63
2022-09-29T05:35:35.751Z,100570.75
2022-09-29T05:38:41.280Z,100576.59
2022-09-29T05:41:47.551Z,100564.88
2022-09-29T05:44:52.276Z,100561.22
2022-09-29T05:47:57.586Z,100573.69
2022-09-29T05:51:09.899Z,100567.25
2022-09-29T05:54:14.684Z,100567.88
2022-09-29T05:57:21.963Z,100573.31
2022-09-29T06:00:27.099Z,100568.00
2022-09-29T06:03:31.832Z,100572.28
2022-09-29T06:06:40.125Z,100564.75
2022-09-29T06:09:44.917Z,100560.38
2022-09-29T06:12:51.334Z,100565.63
2022-09-29T06:15:56.072Z,100573.16
2022-09-29T06:19:03.070Z,100566.03
2022-09-29T06:22:07.845Z,100561.72
2022-09-29T06:25:13.591Z,100572.69
2022-09-29T06:28:19.835Z,100567.69
2022-09-29T06:31:26.833Z,100567.69
2022-09-29T06:34:32.335Z,100571.84
2022-09-29T06:37:36.609Z,100573.78
2022-09-29T06:40:41.375Z,100564.94
2022-09-29T06:43:47.587Z,100567.47
2022-09-29T06:46:52.823Z,100570.47
2022-09-29T06:50:03.692Z,100571.00
2022-09-29T06:53:08.705Z,100571.00
2022-09-29T06:56:15.055Z,100565.06
2022-09-29T06:59:21.683Z,100574.56
2022-09-29T07:02:26.838Z,100574.88
2022-09-29T07:05:32.838Z,100562.88
2022-09-29T07:08:39.287Z,100564.59
2022-09-29T07:11:46.896Z,100564.34
2022-09-29T07:14:53.181Z,100566.31
2022-09-29T07:17:57.875Z,100565.41
2022-09-29T07:21:02.637Z,100566.06
2022-09-29T07:24:07.999Z,100562.69
2022-09-29T07:27:13.288Z,100558.09
2022-09-29T07:30:21.377Z,100570.00
2022-09-29T07:33:37.522Z,100566.38
2022-09-29T07:36:43.531Z,100576.25
2022-09-29T07:39:48.558Z,100574.91
2022-09-29T07:42:53.253Z,100582.41
2022-09-29T07:46:00.508Z,100578.84
2022-09-29T07:49:05.545Z,100577.22
2022-09-29T07:52:13.958Z,100580.78
2022-09-29T07:55:19.446Z,100583.25
2022-09-29T07:58:24.223Z,100585.84
2022-09-29T08:01:31.476Z,100587.59
2022-09-29T08:04:37.174Z,100589.22
2022-09-29T08:07:41.950Z,100586.38
2022-09-29T08:10:52.960Z,100593.38
2022-09-29T08:13:58.251Z,100586.94
2022-09-29T08:17:04.799Z,100595.69
2022-09-29T08:20:10.430Z,100588.31
2022-09-29T08:23:15.655Z,100595.25
2022-09-29T08:26:36.194Z,100594.72
2022-09-29T08:29:46.886Z,100596.97
2022-09-29T08:32:56.926Z,100593.28
2022-09-29T08:36:03.808Z,100599.84
2022-09-29T08:39:10.912Z,100594.63
2022-09-29T08:42:23.618Z,100590.41
2022-09-29T08:45:31.388Z,100587.06
2022-09-29T08:48:56.045Z,100587.69
2022-09-29T08:52:16.061Z,100585.84
2022-09-29T08:55:30.449Z,100587.41
2022-09-29T08:58:36.189Z,100587.56
2022-09-29T09:01:54.186Z,100582.53
2022-09-29T09:05:29.987Z,100585.84
2022-09-29T09:08:51.466Z,100587.38
2022-09-29T09:12:24.397Z,100594.50
2022-09-29T09:16:01.435Z,100590.31
2022-09-29T09:19:35.239Z,100586.16
2022-09-29T09:22:50.782Z,100592.56
2022-09-29T09:25:58.281Z,100592.63
2022-09-29T09:29:05.415Z,100594.34
2022-09-29T09:32:13.668Z,100588.25
2022-09-29T09:35:36.299Z,100582.28
2022-09-29T09:38:56.411Z,100578.59
2022-09-29T09:42:03.980Z,100589.38
2022-09-29T09:45:18.179Z,100585.63
2022-09-29T09:48:31.828Z,100586.69
2022-09-29T09:51:48.259Z,100575.41
2022-09-29T09:54:56.491Z,100583.84
2022-09-29T09:58:46.096Z,100579.28
2022-09-29T10:01:51.167Z,100579.53
2022-09-29T10:04:56.679Z,100589.13
2022-09-29T10:08:01.989Z,100592.47
2022-09-29T10:11:24.345Z,100594.91
2022-09-29T10:14:30.795Z,100601.16
2022-09-29T10:17:43.350Z,100597.44
2022-09-29T10:20:48.396Z,100593.78
2022-09-29T10:23:54.496Z,100590.66
2022-09-29T10:27:02.773Z,100586.00
2022-09-29T10:30:19.968Z,100596.03
2022-09-29T10:33:26.959Z,100594.00
2022-09-29T10:36:48.091Z,100599.22
2022-09-29T10:39:53.095Z,100592.59
2022-09-29T10:43:00.403Z,100594.25
2022-09-29T10:46:06.043Z,100601.38
2022-09-29T10:49:15.538Z,100600.69
2022-09-29T10:52:26.844Z,100604.88
2022-09-29T10:55:33.530Z,100603.91
2022-09-29T10:58:58.956Z,100594.06
2022-09-29T11:02:06.765Z,100606.22
2022-09-29T11:05:19.932Z,100595.41
2022-09-29T11:08:27.628Z,100597.09
2022-09-29T11:11:33.893Z,100600.91
2022-09-29T11:14:44.479Z,100590.66
2022-09-29T11:17:52.323Z,100598.84
2022-09-29T11:21:07.495Z,100592.38
2022-09-29T11:24:18.742Z,100592.69
2022-09-29T11:27:39.174Z,100591.50
2022-09-29T11:30:56.051Z,100587.03
2022-09-29T11:34:24.242Z,100583.25
2022-09-29T11:37:42.288Z,100580.19
2022-09-29T11:40:59.540Z,100575.78
2022-09-29T11:44:21.162Z,100570.38
2022-09-29T11:47:49.763Z,100582.34
2022-09-29T11:51:01.072Z,100577.06
2022-09-29T11:54:22.743Z,100572.03
2022-09-29T11:57:58.149Z,100576.75
2022-09-29T12:01:17.434Z,100586.81
2022-09-29T12:04:36.691Z,100585.16
2022-09-29T12:07:49.246Z,100595.25
2022-09-29T12:11:01.941Z,100581.53
2022-09-29T12:14:17.397Z,100590.16
2022-09-29T12:17:22.823Z,100586.88
2022-09-29T12:20:34.484Z,100586.16
2022-09-29T12:23:40.674Z,100594.06
2022-09-29T12:26:47.748Z,100591.41
2022-09-29T12:29:56.456Z,100596.69
2022-09-29T12:33:07.108Z,100592.56
2022-09-29T12:36:50.743Z,100603.66
2022-09-29T12:40:03.336Z,100607.00
2022-09-29T12:43:15.818Z,100601.56
2022-09-29T12:46:26.692Z,100602.16
2022-09-29T12:49:38.769Z,100599.41
2022-09-29T12:52:51.523Z,100598.41
2022-09-29T12:55:59.933Z,100605.44
2022-09-29T12:59:08.708Z,100598.53
2022-09-29T13:02:37.092Z,100585.81
2022-09-29T13:06:34.355Z,100597.75
2022-09-29T13:09:58.935Z,100603.72
2022-09-29T13:13:47.008Z,100614.19
2022-09-29T13:17:09.490Z,100608.78
2022-09-29T13:20:35.900Z,100620.75
2022-09-29T13:24:07.672Z,100615.75
2022-09-29T13:27:30.342Z,100608.91
2022-09-29T13:30:37.285Z,100623.00
2022-09-29T13:33:47.082Z,100614.84
2022-09-29T13:36:53.465Z,100618.31
2022-09-29T13:40:03.787Z,100620.97
2022-09-29T13:43:41.398Z,100618.84
2022-09-29T13:46:46.335Z,100611.66
2022-09-29T13:49:51.055Z,100618.63
2022-09-29T13:52:56.542Z,100618.19
2022-09-29T13:56:13.716Z,100617.47
2022-09-29T13:59:23.316Z,100619.94
2022-09-29T14:02:36.222Z,100625.69
2022-09-29T14:06:28.895Z,100625.50
2022-09-29T14:09:33.618Z,100615.75
2022-09-29T14:12:38.702Z,100621.94
2022-09-29T14:15:47.877Z,100625.63
2022-09-29T14:18:56.455Z,100624.91
2022-09-29T14:22:02.406Z,100626.19
2022-09-29T14:25:30.959Z,100623.53
2022-09-29T14:28:42.201Z,100626.56
2022-09-29T14:31:52.986Z,100634.78
2022-09-29T14:34:58.100Z,100628.00
2022-09-29T14:38:06.927Z,100629.88
2022-09-29T14:41:32.000Z,100628.31
2022-09-29T14:44:52.195Z,100627.16
2022-09-29T14:48:21.840Z,100642.63
2022-09-29T14:51:49.649Z,100633.28
2022-09-29T14:55:05.689Z,100638.09
2022-09-29T14:58:28.910Z,100637.75
2022-09-29T15:01:36.004Z,100631.84
2022-09-29T15:04:42.263Z,100632.69
2022-09-29T15:07:47.160Z,100632.94
2022-09-29T15:10:51.943Z,100641.25
2022-09-29T15:13:57.633Z,100651.94
2022-09-29T15:17:09.794Z,100647.41
2022-09-29T15:20:23.891Z,100652.75
2022-09-29T15:24:08.392Z,100655.44
2022-09-29T15:27:15.799Z,100660.56
2022-09-29T15:30:24.472Z,100650.47
2022-09-29T15:33:31.665Z,100652.94
2022-09-29T15:36:39.636Z,100659.91
2022-09-29T15:39:49.410Z,100662.66
2022-09-29T15:42:55.732Z,100667.41
2022-09-29T15:46:03.492Z,100656.97
2022-09-29T15:49:16.026Z,100668.03
2022-09-29T15:52:27.595Z,100657.94
2022-09-29T15:55:33.468Z,100673.47
2022-09-29T15:58:47.990Z,100669.06
2022-09-29T16:01:52.802Z,100674.19
2022-09-29T16:05:01.266Z,100684.53
2022-09-29T16:08:15.790Z,100688.09
2022-09-29T16:11:26.059Z,100684.06
2022-09-29T16:14:31.155Z,100682.28
2022-09-29T16:17:36.144Z,100685.78
2022-09-29T16:20:44.780Z,100684.84
2022-09-29T16:24:00.941Z,100696.22
2022-09-29T16:27:12.092Z,100689.53
2022-09-29T16:30:26.675Z,100699.25
2022-09-29T16:33:32.135Z,100702.59
2022-09-29T16:36:37.681Z,100708.50
2022-09-29T16:39:46.086Z,100699.34
2022-09-29T16:42:54.212Z,100717.13
2022-09-29T16:46:01.079Z,100717.25
2022-09-29T16:49:05.881Z,100718.00
2022-09-29T16:52:18.179Z,100717.59
2022-09-29T16:55:28.943Z,100718.31
2022-09-29T16:58:33.948Z,100720.81
2022-09-29T17:01:38.965Z,100720.97
2022-09-29T17:04:43.682Z,100722.75
2022-09-29T17:07:48.781Z,100727.00
2022-09-29T17:10:56.887Z,100727.78
2022-09-29T17:14:01.594Z,100733.78
2022-09-29T17:17:06.333Z,100738.28
2022-09-29T17:20:17.908Z,100735.56
2022-09-29T17:23:22.820Z,100737.50
2022-09-29T17:26:54.977Z,100740.97
2022-09-29T17:29:59.907Z,100739.19
2022-09-29T17:33:05.471Z,100747.78
2022-09-29T17:36:14.257Z,100740.06
2022-09-29T17:39:18.959Z,100730.66
2022-09-29T17:42:25.827Z,100740.31
2022-09-29T17:45:34.758Z,100743.66
2022-09-29T17:48:39.574Z,100741.13
2022-09-29T17:51:44.372Z,100736.94
2022-09-29T17:54:49.421Z,100746.47
2022-09-29T17:57:57.697Z,100748.81
2022-09-29T18:01:02.558Z,100751.38
2022-09-29T18:04:08.862Z,100760.00
2022-09-29T18:07:13.792Z,100757.25
2022-09-29T18:10:22.571Z,100758.34
2022-09-29T18:13:31.443Z,100750.59
2022-09-29T18:16:36.532Z,100752.34
2022-09-29T18:19:41.270Z,100749.94
2022-09-29T18:22:48.901Z,100759.09
2022-09-29T18:25:55.693Z,100748.25
2022-09-29T18:29:02.191Z,100751.75
2022-09-29T18:32:07.041Z,100750.84
2022-09-29T18:35:16.655Z,100757.63
2022-09-29T18:38:22.158Z,100767.94
2022-09-29T18:41:27.522Z,100765.53
2022-09-29T18:44:33.981Z,100763.81
2022-09-29T18:47:39.220Z,100757.03
2022-09-29T18:50:46.185Z,100764.00
2022-09-29T18:53:50.924Z,100770.19
2022-09-29T18:56:55.640Z,100769.25
2022-09-29T19:00:02.892Z,100769.16
2022-09-29T19:03:09.421Z,100770.06
2022-09-29T19:06:16.829Z,100761.88
2022-09-29T19:09:21.900Z,100764.81
2022-09-29T19:12:29.723Z,100772.34
2022-09-29T19:15:39.767Z,100768.94
2022-09-29T19:18:44.890Z,100777.41
2022-09-29T19:21:49.682Z,100778.34
2022-09-29T19:24:54.695Z,100778.44
2022-09-29T19:28:00.614Z,100791.59
2022-09-29T19:31:09.194Z,100777.63
2022-09-29T19:34:14.134Z,100784.41
2022-09-29T19:37:19.684Z,100776.84
2022-09-29T19:40:28.876Z,100774.09
2022-09-29T19:43:34.244Z,100779.47
2022-09-29T19:46:40.433Z,100787.91
2022-09-29T19:49:45.475Z,100775.84
2022-09-29T19:52:49.244Z,100785.94
2022-09-29T19:55:53.944Z,100788.63
2022-09-29T19:58:58.638Z,100792.41
2022-09-29T20:02:08.679Z,100787.94
2022-09-29T20:05:14.015Z,100787.19
2022-09-29T20:08:19.625Z,100793.31
2022-09-29T20:11:24.430Z,100789.78
2022-09-29T20:14:33.074Z,100791.53
2022-09-29T20:17:40.743Z,100791.34
2022-09-29T20:20:45.499Z,100810.97
2022-09-29T20:23:50.412Z,100800.88
2022-09-29T20:26:57.954Z,100805.13
2022-09-29T20:30:05.045Z,100805.69
2022-09-29T20:33:14.390Z,100815.78
2022-09-29T20:36:19.408Z,100813.72
2022-09-29T20:39:25.907Z,100818.13
2022-09-29T20:42:33.123Z,100822.25
2022-09-29T20:45:37.803Z,100821.34
2022-09-29T20:48:44.322Z,100813.63
2022-09-29T20:51:49.525Z,100812.81
2022-09-29T20:54:54.328Z,100813.78
2022-09-29T20:58:00.486Z,100824.81
2022-09-29T21:01:13.739Z,100821.81
2022-09-29T21:04:21.987Z,100824.22
2022-09-29T21:07:40.213Z,100825.94
2022-09-29T21:10:44.960Z,100821.59
2022-09-29T21:13:51.887Z,100826.09
2022-09-29T21:16:58.330Z,100831.81
2022-09-29T21:20:06.207Z,100828.38
2022-09-29T21:23:12.700Z,100834.22
2022-09-29T21:26:19.808Z,100844.38
2022-09-29T21:29:25.071Z,100842.72
2022-09-29T21:32:30.210Z,100838.47
2022-09-29T21:35:36.358Z,100840.16
2022-09-29T21:38:43.939Z,100839.25
2022-09-29T21:41:49.147Z,100840.94
2022-09-29T21:44:57.862Z,100846.22
2022-09-29T21:48:09.328Z,100845.59
2022-09-29T21:51:19.563Z,100853.31
2022-09-29T21:54:25.975Z,100845.47
2022-09-29T21:57:30.887Z,100845.66
2022-09-29T22:00:35.630Z,100847.28
2022-09-29T22:03:42.402Z,100860.09
2022-09-29T22:06:48.882Z,100855.06
2022-09-29T22:09:53.699Z,100865.47
2022-09-29T22:12:58.739Z,100857.94
2022-09-29T22:16:06.468Z,100865.50
2022-09-29T22:19:23.014Z,100867.50
2022-09-29T22:22:30.379Z,100874.78
2022-09-29T22:25:35.530Z,100876.53
2022-09-29T22:28:41.395Z,100868.28
2022-09-29T22:31:46.929Z,100875.72
2022-09-29T22:34:52.510Z,100878.31
2022-09-29T22:37:58.810Z,100877.50
2022-09-29T22:41:09.726Z,100888.53
2022-09-29T22:44:15.112Z,100882.50
2022-09-29T22:47:20.005Z,100885.13
2022-09-29T22:50:26.435Z,100885.94
2022-09-29T22:53:33.108Z,100886.78
2022-09-29T22:56:39.932Z,100888.28
2022-09-29T22:59:45.069Z,100886.69
2022-09-29T23:02:50.327Z,100886.59
2022-09-29T23:05:59.308Z,100885.78
2022-09-29T23:09:05.728Z,100883.19
2022-09-29T23:12:12.047Z,100881.44
2022-09-29T23:15:18.084Z,100890.69
2022-09-29T23:18:22.878Z,100891.00
2022-09-29T23:21:28.018Z,100889.06
2022-09-29T23:24:34.437Z,100889.13
2022-09-29T23:27:39.328Z,100883.91
2022-09-29T23:30:44.357Z,100882.13
2022-09-29T23:33:53.353Z,100878.66
2022-09-29T23:36:59.493Z,100881.50
2022-09-29T23:40:05.435Z,100883.47
2022-09-29T23:43:13.786Z,100876.31
2022-09-29T23:46:19.070Z,100870.22
2022-09-29T23:49:26.984Z,100875.34
2022-09-29T23:52:31.816Z,100871.47
2022-09-29T23:55:38.140Z,100873.28
2022-09-29T23:58:43.399Z,100874.81
